Time;durP1;ratioP1;P1;durP2;ratioP2;P2;SDS_P1;SDS_P2;PMS_P1;PMS_P2;Temp;Humidity;BMP_temperature;BMP_pressure;BME280_temperature;BME280_humidity;BME280_pressure;Samples;Min_cycle;Max_cycle;Signal;HPM_P1;HPM_P2
2021/06/15 00:01:15;;;;;;;4.12;3.58;;;;;;;23.74;63.80;101043.02;1704233;83;21055;-47
2021/06/15 00:03:41;;;;;;;4.12;3.37;;;;;;;23.74;63.83;101041.18;1683755;83;21073;-48
2021/06/15 00:06:08;;;;;;;5.42;3.95;;;;;;;23.73;63.84;101034.19;1692248;84;20987;-46
2021/06/15 00:08:35;;;;;;;6.25;3.25;;;;;;;23.74;63.90;101031.05;1692664;83;21066;-49
2021/06/15 00:11:02;;;;;;;3.52;3.22;;;;;;;23.75;63.89;101036.25;1701300;83;21491;-49
2021/06/15 00:13:29;;;;;;;4.80;3.10;;;;;;;23.77;63.80;101032.15;1709539;83;21102;-47
2021/06/15 00:15:56;;;;;;;4.78;3.20;;;;;;;23.77;63.78;101030.82;1697669;83;21071;-47
2021/06/15 00:18:23;;;;;;;4.70;3.33;;;;;;;23.78;63.81;101029.38;1685338;84;21047;-47
2021/06/15 00:20:51;;;;;;;3.50;3.05;;;;;;;23.78;63.77;101026.72;1685792;83;21125;-47
2021/06/15 00:23:19;;;;;;;4.20;3.00;;;;;;;23.77;63.70;101023.70;1688151;83;21047;-46
2021/06/15 00:25:46;;;;;;;4.08;2.90;;;;;;;23.76;63.70;101032.63;1681593;83;21026;-47
2021/06/15 00:28:12;;;;;;;5.28;2.95;;;;;;;23.77;63.65;101026.36;1697717;84;21502;-47
2021/06/15 00:30:40;;;;;;;3.45;2.83;;;;;;;23.78;63.59;101017.41;1691918;83;21054;-51
2021/06/15 00:33:07;;;;;;;4.60;3.12;;;;;;;23.77;63.50;101006.44;1708075;83;21015;-47
2021/06/15 00:35:34;;;;;;;3.42;3.00;;;;;;;23.75;63.43;101011.01;1697229;83;21502;-46
2021/06/15 00:38:01;;;;;;;2.83;2.62;;;;;;;23.74;63.40;101018.59;1702662;83;21062;-47
2021/06/15 00:40:29;;;;;;;6.37;3.20;;;;;;;23.72;63.33;101023.17;1682458;83;21550;-47
2021/06/15 00:42:56;;;;;;;3.72;2.80;;;;;;;23.69;63.38;101023.41;1694078;83;21114;-50
2021/06/15 00:45:26;;;;;;;3.75;2.67;;;;;;;23.65;63.36;101013.96;1688598;83;21059;-46
2021/06/15 00:47:54;;;;;;;3.85;2.22;;;;;;;23.60;63.42;101004.13;1690619;83;21032;-50
2021/06/15 00:50:23;;;;;;;5.15;2.70;;;;;;;23.56;63.59;101002.66;1689402;83;21526;-48
2021/06/15 00:52:52;;;;;;;4.87;2.95;;;;;;;23.57;63.63;101004.37;1690776;84;21007;-48
2021/06/15 00:55:24;;;;;;;4.22;2.83;;;;;;;23.56;63.64;100989.37;1701425;84;21019;-47
2021/06/15 00:57:52;;;;;;;4.50;2.60;;;;;;;23.56;63.59;100990.70;1686360;83;21050;-51
2021/06/15 01:00:20;;;;;;;4.78;2.90;;;;;;;23.55;63.62;100990.34;1686372;83;21039;-46
2021/06/15 01:02:47;;;;;;;3.95;2.90;;;;;;;23.55;63.55;100993.00;1694982;83;21049;-47
2021/06/15 01:05:15;;;;;;;3.08;2.75;;;;;;;23.52;63.53;100993.20;1711092;83;21022;-48
2021/06/15 01:08:06;;;;;;;4.45;3.40;;;;;;;23.52;63.60;100988.37;1688904;83;21011;-52
2021/06/15 01:11:15;;;;;;;6.95;3.27;;;;;;;23.50;63.64;100987.16;1678900;84;21066;-48
2021/06/15 01:14:16;;;;;;;3.70;2.75;;;;;;;23.50;63.74;100987.16;1682989;84;21090;-46
2021/06/15 01:16:58;;;;;;;6.83;3.00;;;;;;;23.50;63.78;100988.48;1689952;82;21034;-50
2021/06/15 01:19:55;;;;;;;6.03;2.98;;;;;;;23.48;63.95;100988.22;1694161;83;21023;-47
2021/06/15 01:22:53;;;;;;;4.50;4.10;;;;;;;23.47;64.09;100992.70;1714547;83;21574;-46
2021/06/15 01:25:39;;;;;;;3.22;2.75;;;;;;;23.45;64.12;100997.28;1687554;83;21049;-48
2021/06/15 01:28:45;;;;;;;3.45;2.95;;;;;;;23.42;64.05;101003.65;1682601;83;21490;-52
2021/06/15 01:31:27;;;;;;;8.03;3.00;;;;;;;23.40;64.14;101000.25;1679505;83;21063;-47
2021/06/15 01:33:59;;;;;;;;;;;;;;;23.40;64.17;101000.73;1713025;82;21023;-46
2021/06/15 01:36:32;;;;;;;7.10;2.90;;;;;;;23.39;64.16;101005.65;1701481;83;20096;-51
2021/06/15 01:39:03;;;;;;;5.22;3.35;;;;;;;23.37;64.18;101000.45;1670934;84;21018;-51
2021/06/15 01:41:46;;;;;;;3.45;3.12;;;;;;;23.38;64.06;101005.30;1686713;83;21030;-46
2021/06/15 01:44:13;;;;;;;4.42;3.10;;;;;;;23.36;64.03;101005.41;1665958;84;21085;-48
2021/06/15 01:46:51;;;;;;;4.05;2.92;;;;;;;23.37;64.12;101008.89;1714101;81;22151;-47
2021/06/15 01:49:19;;;;;;;3.40;3.10;;;;;;;23.38;64.15;101009.28;1643891;87;21056;-48
2021/06/15 01:51:47;;;;;;;8.88;3.20;;;;;;;23.38;64.23;101010.61;1645284;87;21069;-51
2021/06/15 01:54:22;;;;;;;4.47;3.02;;;;;;;23.38;64.23;101014.59;1629673;87;21046;-48
2021/06/15 01:56:52;;;;;;;5.67;3.00;;;;;;;23.38;64.33;101018.58;1654795;86;21706;-48
2021/06/15 01:59:24;;;;;;;5.20;3.25;;;;;;;23.39;64.37;101021.58;1653827;87;21028;-47
2021/06/15 02:01:57;;;;;;;6.58;3.85;;;;;;;23.37;64.32;101020.84;1634019;87;21009;-46
2021/06/15 02:04:31;;;;;;;5.17;3.30;;;;;;;23.35;64.37;101022.76;1608123;89;21067;-48
2021/06/15 02:06:58;;;;;;;5.12;3.30;;;;;;;23.33;64.58;101022.02;1638743;85;21054;-47
2021/06/15 02:09:26;;;;;;;4.72;3.35;;;;;;;23.33;64.64;101016.70;1608091;87;21065;-47
2021/06/15 02:12:00;;;;;;;8.35;3.55;;;;;;;23.32;64.70;101015.88;1630054;87;21029;-47
2021/06/15 02:14:41;;;;;;;6.37;3.70;;;;;;;23.31;64.76;101017.27;1611449;88;21081;-51
2021/06/15 02:17:09;;;;;;;4.17;3.75;;;;;;;23.30;64.82;101011.59;1596013;89;21809;-48
2021/06/15 02:19:54;;;;;;;6.45;4.25;;;;;;;23.29;64.84;101005.90;1592727;90;21028;-47
2021/06/15 02:22:22;;;;;;;10.13;4.35;;;;;;;23.28;64.88;101014.38;1596836;90;21088;-47
2021/06/15 02:24:53;;;;;;;5.22;3.70;;;;;;;23.29;65.02;101013.87;1576492;90;21064;-48
2021/06/15 02:27:23;;;;;;;6.20;3.72;;;;;;;23.28;65.09;101010.86;1557568;92;21149;-50
2021/06/15 02:29:55;;;;;;;4.83;4.30;;;;;;;23.29;65.12;101012.53;1557424;90;21532;-51
2021/06/15 02:32:32;;;;;;;5.87;4.03;;;;;;;23.29;65.16;101015.19;1477446;96;21078;-52
2021/06/15 02:35:01;;;;;;;5.15;3.90;;;;;;;23.29;65.24;101013.87;1436268;99;21558;-50
2021/06/15 02:37:33;;;;;;;6.47;4.20;;;;;;;23.28;65.40;101018.35;1438249;99;21601;-47
2021/06/15 02:40:00;;;;;;;7.97;3.80;;;;;;;23.29;65.43;101017.84;1439274;98;21138;-48
2021/06/15 02:42:27;;;;;;;4.37;3.98;;;;;;;23.31;65.41;101023.91;1427710;99;21051;-47
2021/06/15 02:44:58;;;;;;;9.78;3.90;;;;;;;23.32;65.43;101022.99;1441125;98;21160;-48
2021/06/15 02:47:28;;;;;;;4.45;3.80;;;;;;;23.32;65.46;101025.64;1415669;99;21123;-47
2021/06/15 02:49:57;;;;;;;8.70;3.55;;;;;;;23.31;65.45;101020.77;1411202;99;21129;-48
2021/06/15 02:52:30;;;;;;;5.10;3.70;;;;;;;23.33;65.49;101023.34;1418612;99;21873;-47
2021/06/15 02:55:04;;;;;;;11.40;3.77;;;;;;;23.33;65.43;101027.33;1426253;99;21106;-52
2021/06/15 02:57:32;;;;;;;6.40;4.17;;;;;;;23.32;65.32;101037.13;1394650;101;21686;-48
2021/06/15 02:59:59;;;;;;;5.92;4.10;;;;;;;23.29;65.25;101028.47;1386848;101;21206;-47
2021/06/15 03:02:28;;;;;;;7.37;3.87;;;;;;;23.28;65.21;101034.75;1387158;102;21108;-48
2021/06/15 03:04:55;;;;;;;4.90;4.40;;;;;;;23.27;65.27;101033.04;1394544;101;21148;-48
2021/06/15 03:07:23;;;;;;;6.12;3.92;;;;;;;23.28;65.26;101029.45;1435789;98;21123;-46
2021/06/15 03:09:52;;;;;;;8.05;3.95;;;;;;;23.27;65.13;101029.91;1445043;97;21631;-47
2021/06/15 03:12:24;;;;;;;6.55;3.90;;;;;;;23.27;64.98;101031.24;1400595;100;21146;-48
2021/06/15 03:14:57;;;;;;;10.40;5.67;;;;;;;23.28;64.86;101033.42;1441506;98;21162;-48
2021/06/15 03:17:26;;;;;;;5.37;4.37;;;;;;;23.28;64.87;101024.13;1347791;105;21157;-48
2021/06/15 03:20:05;;;;;;;5.85;3.60;;;;;;;23.30;64.97;101027.53;1328325;107;21170;-47
2021/06/15 03:22:59;;;;;;;5.45;3.75;;;;;;;23.30;64.99;101034.17;1338484;105;21210;-47
2021/06/15 03:25:28;;;;;;;;;;;;;;;23.32;64.93;101030.96;1322218;107;21174;-48
2021/06/15 03:28:04;;;;;;;5.10;4.03;;;;;;;23.30;64.87;101040.80;1315850;108;20172;-47
2021/06/15 03:30:30;;;;;;;5.95;3.98;;;;;;;23.29;64.88;101031.13;1337343;104;21672;-51
2021/06/15 03:33:09;;;;;;;6.33;4.30;;;;;;;23.28;64.90;101030.77;1374671;103;21179;-47
2021/06/15 03:35:42;;;;;;;7.03;4.50;;;;;;;23.28;64.92;101029.45;1324629;106;21216;-50
2021/06/15 03:38:10;;;;;;;7.45;3.95;;;;;;;23.28;65.00;101024.98;1285357;110;21182;-50
2021/06/15 03:40:44;;;;;;;5.95;3.90;;;;;;;23.28;65.02;101024.98;1282403;110;21314;-47
2021/06/15 03:43:12;;;;;;;5.05;4.55;;;;;;;23.30;65.08;101022.22;1293629;108;21228;-51
2021/06/15 03:45:43;;;;;;;8.80;4.33;;;;;;;23.30;65.11;101022.22;1292639;108;21237;-47
2021/06/15 03:48:10;;;;;;;7.42;4.22;;;;;;;23.32;65.08;101015.03;1290530;109;21253;-47
2021/06/15 03:50:38;;;;;;;7.85;4.50;;;;;;;23.33;65.05;101006.09;1285647;110;21278;-47
2021/06/15 03:53:08;;;;;;;5.62;4.10;;;;;;;23.36;65.07;101015.18;1282232;110;21758;-47
2021/06/15 03:55:37;;;;;;;6.47;4.05;;;;;;;23.37;65.08;101004.91;1317183;106;21171;-47
2021/06/15 03:58:07;;;;;;;9.48;4.47;;;;;;;23.40;65.13;101008.22;1370566;102;21156;-47
2021/06/15 04:00:34;;;;;;;8.18;4.40;;;;;;;23.42;65.08;101003.65;1367917;101;21204;-48
2021/06/15 04:03:04;;;;;;;7.72;4.72;;;;;;;23.47;65.01;101005.12;1390221;100;21160;-47
2021/06/15 04:05:30;;;;;;;8.23;4.20;;;;;;;23.49;64.93;101004.07;1424205;100;21184;-48
2021/06/15 04:08:01;;;;;;;7.25;4.40;;;;;;;23.52;64.84;100999.84;1405222;100;21140;-48
2021/06/15 04:10:29;;;;;;;7.35;4.55;;;;;;;23.51;64.68;100996.84;1409474;99;21566;-48
2021/06/15 04:12:57;;;;;;;7.58;4.25;;;;;;;23.52;64.59;101003.83;1413664;100;21207;-46
2021/06/15 04:15:25;;;;;;;6.35;4.58;;;;;;;23.54;64.49;101003.24;1432719;98;21104;-46
2021/06/15 04:17:52;;;;;;;7.08;4.65;;;;;;;23.54;64.44;100997.93;1424962;99;21689;-47
2021/06/15 04:20:24;;;;;;;9.63;5.05;;;;;;;23.56;64.47;100996.02;1495513;94;21140;-47
2021/06/15 04:22:50;;;;;;;;;;;;;;;23.58;64.47;101002.53;1491086;95;21133;-48
2021/06/15 04:25:21;;;;;;;9.83;4.37;;;;;;;23.57;64.41;100997.73;1486145;94;20195;-51
2021/06/15 04:27:49;;;;;;;9.28;4.90;;;;;;;23.56;64.41;100992.03;1472656;95;21115;-46
2021/06/15 04:30:19;;;;;;;13.55;5.47;;;;;;;23.54;64.33;100983.80;1491266;95;21095;-48
2021/06/15 04:32:55;;;;;;;8.03;4.90;;;;;;;23.53;64.33;100982.97;1535925;90;21094;-50
2021/06/15 04:35:39;;;;;;;10.43;5.60;;;;;;;23.53;64.44;100979.45;1543613;90;21619;-48
2021/06/15 04:38:18;;;;;;;8.78;4.90;;;;;;;23.55;64.45;100971.75;1533196;92;21162;-47
2021/06/15 04:40:49;;;;;;;5.87;4.72;;;;;;;23.58;64.38;100978.63;1524797;92;21654;-48
2021/06/15 04:43:42;;;;;;;10.18;5.08;;;;;;;23.60;64.39;100976.23;1539249;92;21090;-48
2021/06/15 04:46:37;;;;;;;6.05;4.40;;;;;;;23.63;64.43;100974.70;1528267;91;21193;-53
2021/06/15 04:49:25;;;;;;;7.80;4.42;;;;;;;23.69;64.36;100966.28;1533948;91;21102;-48
2021/06/15 04:51:53;;;;;;;6.67;4.42;;;;;;;23.76;64.30;100961.38;1504702;93;22376;-46
2021/06/15 04:54:22;;;;;;;12.75;5.25;;;;;;;23.81;64.18;100958.74;1511509;93;21690;-47
2021/06/15 04:56:50;;;;;;;5.22;4.72;;;;;;;23.87;64.15;100964.94;1511683;94;21096;-46
2021/06/15 04:59:21;;;;;;;6.42;4.95;;;;;;;23.95;63.97;100969.20;1508043;93;21146;-47
2021/06/15 05:01:48;;;;;;;9.70;4.85;;;;;;;24.04;63.58;100980.53;1511028;92;21588;-48
2021/06/15 05:04:15;;;;;;;7.12;4.60;;;;;;;24.13;63.47;100987.80;1505548;93;21147;-46
2021/06/15 05:06:42;;;;;;;5.80;4.45;;;;;;;24.22;63.39;100995.12;1508407;93;21132;-46
2021/06/15 05:09:09;;;;;;;8.75;3.90;;;;;;;24.33;63.28;100998.31;1491988;93;21120;-47
2021/06/15 05:11:38;;;;;;;4.95;4.15;;;;;;;24.45;63.03;100999.19;1479492;94;21147;-46
2021/06/15 05:14:07;;;;;;;4.90;4.20;;;;;;;24.61;62.62;100999.72;1547260;90;21162;-48
2021/06/15 05:16:35;;;;;;;6.85;4.03;;;;;;;24.77;62.35;101004.30;1555928;91;21319;-46
2021/06/15 05:19:02;;;;;;;7.25;4.70;;;;;;;24.94;61.99;101007.34;1548894;89;21126;-50
2021/06/15 05:21:41;;;;;;;8.63;4.65;;;;;;;25.13;61.27;101000.58;1564559;88;21587;-49
2021/06/15 05:24:29;;;;;;;6.12;4.75;;;;;;;25.26;60.57;100999.98;1580652;88;21066;-45
2021/06/15 05:26:56;;;;;;;6.70;4.70;;;;;;;25.38;60.13;101012.34;1518140;92;21121;-48
2021/06/15 05:29:23;;;;;;;7.67;4.78;;;;;;;25.43;59.62;101021.69;1490554;93;21112;-45
2021/06/15 05:31:50;;;;;;;6.97;4.60;;;;;;;25.43;59.33;101027.01;1492602;94;21149;-47
2021/06/15 05:34:16;;;;;;;8.50;5.37;;;;;;;25.42;59.19;101031.99;1494224;93;21571;-47
2021/06/15 05:36:43;;;;;;;6.75;4.40;;;;;;;25.40;59.30;101039.22;1495314;93;21397;-45
2021/06/15 05:39:10;;;;;;;9.73;4.42;;;;;;;25.39;59.40;101044.17;1492723;92;21145;-51
2021/06/15 05:41:37;;;;;;;5.62;4.97;;;;;;;25.42;59.33;101049.78;1494174;93;21094;-49
2021/06/15 05:44:04;;;;;;;8.93;5.40;;;;;;;25.41;59.39;101048.93;1478752;94;21108;-48
2021/06/15 05:46:31;;;;;;;8.98;5.50;;;;;;;25.45;59.20;101053.05;1465854;95;21111;-51
2021/06/15 05:48:57;;;;;;;6.30;4.20;;;;;;;25.53;58.84;101051.95;1442847;96;21113;-47
2021/06/15 05:51:24;;;;;;;5.75;4.30;;;;;;;25.63;58.35;101040.95;1483052;94;21081;-45
2021/06/15 05:53:51;;;;;;;7.72;4.53;;;;;;;25.69;58.09;101043.13;1489309;94;21147;-48
2021/06/15 05:56:18;;;;;;;6.67;4.65;;;;;;;25.75;57.59;101045.30;1446610;97;21638;-47
2021/06/15 05:58:45;;;;;;;8.43;4.45;;;;;;;25.82;57.58;101042.48;1441546;98;21200;-49
2021/06/15 06:01:12;;;;;;;5.85;4.20;;;;;;;25.88;56.72;101046.98;1490595;94;21187;-45
2021/06/15 06:03:44;;;;;;;7.20;4.20;;;;;;;25.88;56.72;101046.98;1533318;89;21084;-49
2021/06/15 06:08:55;;;;;;;6.37;3.30;;;;;;;25.83;56.28;101041.53;1549602;90;21080;-45
2021/06/15 06:11:22;;;;;;;6.80;3.98;;;;;;;25.75;56.19;101047.97;1588043;89;21182;-46
2021/06/15 06:13:53;;;;;;;3.95;3.40;;;;;;;25.70;56.32;101046.62;1554420;91;21104;-48
2021/06/15 06:16:17;;;;;;;7.17;3.70;;;;;;;25.65;56.45;101051.48;1575184;89;21048;-48
2021/06/15 06:18:44;;;;;;;11.43;3.37;;;;;;;25.62;56.56;101054.37;1544612;92;21119;-48
2021/06/15 06:21:11;;;;;;;4.65;4.15;;;;;;;25.57;56.62;101054.77;1569546;87;21069;-48
2021/06/15 06:23:39;;;;;;;7.47;3.52;;;;;;;25.52;56.65;101056.94;1663812;82;21006;-47
2021/06/15 06:26:06;;;;;;;5.10;3.45;;;;;;;25.48;56.53;101055.48;1713887;82;21529;-47
2021/06/15 06:28:33;;;;;;;6.90;3.85;;;;;;;25.42;56.51;101051.12;1672324;84;21054;-48
2021/06/15 06:31:00;;;;;;;8.55;4.10;;;;;;;25.39;56.57;101052.67;1652450;85;21056;-48
2021/06/15 06:33:26;;;;;;;7.28;4.25;;;;;;;25.36;56.66;101057.75;1715322;83;21084;-46
2021/06/15 06:35:53;;;;;;;4.42;3.45;;;;;;;25.33;56.81;101056.64;1709778;82;21565;-48
2021/06/15 06:38:20;;;;;;;9.75;3.47;;;;;;;25.32;56.87;101050.97;1702922;82;21067;-48
2021/06/15 06:40:48;;;;;;;4.83;3.90;;;;;;;25.29;57.05;101052.53;1703433;83;21070;-48
2021/06/15 06:43:14;;;;;;;6.12;3.20;;;;;;;25.29;57.11;101052.53;1709134;82;21092;-48
2021/06/15 06:45:41;;;;;;;6.33;3.58;;;;;;;25.29;57.05;101054.34;1699679;82;21127;-48
2021/06/15 06:48:10;;;;;;;4.33;3.27;;;;;;;25.26;57.03;101051.45;1717845;82;21495;-48
2021/06/15 06:50:37;;;;;;;7.15;3.27;;;;;;;25.22;57.00;101051.33;1720178;82;21049;-50
2021/06/15 06:53:04;;;;;;;4.65;2.80;;;;;;;25.18;57.20;101047.20;1701744;83;21029;-47
2021/06/15 06:55:32;;;;;;;3.65;3.30;;;;;;;25.17;57.30;101053.48;1717939;82;21056;-47
2021/06/15 06:58:01;;;;;;;3.70;3.08;;;;;;;25.15;57.30;101050.09;1675570;84;21066;-50
2021/06/15 07:00:28;;;;;;;5.00;3.12;;;;;;;25.14;57.33;101061.73;1653537;85;21535;-46
2021/06/15 07:02:56;;;;;;;4.60;3.30;;;;;;;25.13;57.40;101064.48;1714006;82;21041;-46
2021/06/15 07:05:23;;;;;;;5.78;3.40;;;;;;;25.10;57.36;101066.90;1713106;82;21497;-49
2021/06/15 07:07:52;;;;;;;7.75;3.62;;;;;;;25.10;57.43;101070.06;1706895;82;21108;-48
2021/06/15 07:10:20;;;;;;;4.37;3.70;;;;;;;25.08;57.30;101090.13;1717631;82;21528;-48
2021/06/15 07:12:48;;;;;;;4.90;3.50;;;;;;;25.09;57.41;101099.84;1704264;82;21061;-47
2021/06/15 07:15:16;;;;;;;6.05;3.95;;;;;;;25.10;57.63;101111.34;1702041;82;21041;-47
2021/06/15 07:17:43;;;;;;;6.97;4.85;;;;;;;25.11;57.97;101122.34;1712836;82;21009;-46
2021/06/15 07:20:12;;;;;;;5.40;3.62;;;;;;;25.10;58.08;101133.47;1713506;82;21070;-46
2021/06/15 07:22:39;;;;;;;8.10;4.50;;;;;;;25.10;58.11;101138.80;1706727;82;21665;-48
2021/06/15 07:25:08;;;;;;;7.28;5.03;;;;;;;25.08;58.57;101131.41;1668834;83;21073;-49
2021/06/15 07:27:35;;;;;;;7.80;4.90;;;;;;;25.07;58.81;101137.72;1660193;86;21535;-49
2021/06/15 07:30:04;;;;;;;8.45;4.12;;;;;;;25.05;59.09;101134.32;1647907;85;21065;-49
2021/06/15 07:32:31;;;;;;;6.40;2.87;;;;;;;25.01;59.16;101127.53;1643964;85;21137;-48
2021/06/15 07:34:58;;;;;;;7.95;2.95;;;;;;;24.93;58.62;101131.26;1650333;85;21528;-47
2021/06/15 07:37:25;;;;;;;15.23;3.22;;;;;;;24.81;58.12;101118.87;1654398;86;21053;-46
2021/06/15 07:39:52;;;;;;;13.88;2.80;;;;;;;24.68;57.73;101111.39;1641438;85;21545;-48
2021/06/15 07:42:19;;;;;;;9.23;3.58;;;;;;;24.57;57.78;101107.34;1703333;83;21518;-46
2021/06/15 07:44:46;;;;;;;23.07;6.78;;;;;;;24.48;57.64;101090.75;1716031;82;21576;-48
2021/06/15 07:47:14;;;;;;;10.70;3.58;;;;;;;24.41;58.49;101078.38;1702562;83;21093;-51
2021/06/15 07:49:41;;;;;;;13.55;4.60;;;;;;;24.36;58.88;101051.77;1716703;82;21523;-45
2021/06/15 07:52:07;;;;;;;8.50;3.30;;;;;;;24.31;59.11;101032.15;1669034;85;21037;-46
2021/06/15 07:54:35;;;;;;;12.47;3.65;;;;;;;24.31;59.28;101011.34;1710639;82;21053;-49
2021/06/15 07:57:06;;;;;;;7.35;2.80;;;;;;;24.31;59.40;101021.52;1702361;82;21501;-48
2021/06/15 07:59:33;;;;;;;8.88;3.98;;;;;;;24.30;59.26;101018.97;1657861;85;21067;-46
2021/06/15 08:01:59;;;;;;;6.37;3.02;;;;;;;24.33;59.21;101014.73;1637226;86;21825;-46
2021/06/15 08:04:26;;;;;;;7.35;2.98;;;;;;;24.33;59.46;101005.43;1652543;86;21127;-49
2021/06/15 08:06:53;;;;;;;8.33;2.35;;;;;;;24.32;59.28;100989.95;1651815;85;21556;-47
2021/06/15 08:09:20;;;;;;;5.83;3.35;;;;;;;24.27;58.77;100977.97;1652897;86;21049;-48
2021/06/15 08:11:47;;;;;;;5.25;2.58;;;;;;;24.15;58.67;100972.59;1652770;86;21538;-46
2021/06/15 08:14:14;;;;;;;2.95;2.40;;;;;;;24.12;59.36;100966.66;1668325;84;21604;-47
2021/06/15 08:16:41;;;;;;;5.67;2.87;;;;;;;24.13;59.55;100961.22;1668108;85;21052;-49
2021/06/15 08:19:08;;;;;;;7.17;2.58;;;;;;;24.14;59.74;100966.06;1671737;84;21533;-48
2021/06/15 08:21:35;;;;;;;10.32;3.40;;;;;;;24.16;59.88;100966.33;1657436;85;21107;-48
2021/06/15 08:24:02;;;;;;;4.58;3.08;;;;;;;24.17;60.15;100964.02;1639140;87;21531;-48
2021/06/15 08:26:28;;;;;;;6.05;2.85;;;;;;;24.22;60.44;100967.66;1625703;86;21034;-48
2021/06/15 08:28:55;;;;;;;5.85;2.98;;;;;;;24.25;60.66;100961.63;1660394;85;21062;-47
2021/06/15 08:31:23;;;;;;;4.20;2.67;;;;;;;24.32;60.69;100966.52;1660142;84;21649;-49
2021/06/15 08:33:49;;;;;;;3.75;2.47;;;;;;;24.37;60.37;100956.36;1666797;84;21012;-48
2021/06/15 08:36:18;;;;;;;5.05;3.52;;;;;;;24.39;60.43;100949.11;1674850;83;21110;-48
2021/06/15 08:38:45;;;;;;;4.90;2.92;;;;;;;24.41;60.70;100953.83;1668838;85;21120;-49
2021/06/15 08:41:11;;;;;;;5.90;3.33;;;;;;;24.45;61.17;100955.30;1627015;87;21207;-48
2021/06/15 08:43:38;;;;;;;6.00;3.90;;;;;;;24.49;61.42;100947.44;1609853;87;21104;-46
2021/06/15 08:46:05;;;;;;;5.30;3.98;;;;;;;24.54;61.63;100943.97;1648799;86;21071;-47
2021/06/15 08:48:34;;;;;;;6.67;4.28;;;;;;;24.58;61.90;100934.78;1626296;87;21529;-48
2021/06/15 08:51:02;;;;;;;8.23;4.58;;;;;;;24.60;61.96;100929.71;1653958;84;21046;-47
2021/06/15 08:53:34;;;;;;;6.87;4.00;;;;;;;24.61;62.22;100938.05;1647759;86;21538;-48
2021/06/15 08:56:09;;;;;;;4.10;3.45;;;;;;;24.62;62.34;100944.22;1652895;85;21054;-49
2021/06/15 08:58:46;;;;;;;6.10;3.50;;;;;;;24.61;62.20;100943.37;1654308;85;21079;-50
2021/06/15 09:01:13;;;;;;;3.67;3.02;;;;;;;24.56;61.83;100944.69;1607281;88;21042;-49
2021/06/15 09:03:40;;;;;;;3.75;3.20;;;;;;;24.54;61.52;100936.84;1647212;85;21076;-46
2021/06/15 09:06:07;;;;;;;7.80;4.10;;;;;;;24.51;61.45;100941.52;1655806;85;21070;-48
2021/06/15 09:08:56;;;;;;;5.25;4.20;;;;;;;24.43;61.92;100931.95;1659650;85;21030;-48
2021/06/15 09:11:23;;;;;;;9.38;4.28;;;;;;;24.42;62.35;100932.94;1650552;85;21038;-48
2021/06/15 09:13:52;;;;;;;6.35;4.47;;;;;;;24.38;62.67;100930.14;1700491;82;21045;-49
2021/06/15 09:16:36;;;;;;;5.80;4.50;;;;;;;24.37;62.96;100931.09;1720903;82;21536;-46
2021/06/15 09:19:17;;;;;;;6.67;4.75;;;;;;;24.38;63.18;100931.47;1712981;82;21569;-51
2021/06/15 09:21:45;;;;;;;;;;;;;;;24.40;63.25;100960.13;1650748;85;21095;-46
2021/06/15 09:24:26;;;;;;;12.88;3.90;;;;;;;24.44;63.52;101002.32;1652478;85;20137;-48
2021/06/15 09:26:57;;;;;;;6.40;2.65;;;;;;;24.49;63.54;101005.97;1655032;86;21036;-51
2021/06/15 09:29:51;;;;;;;5.62;2.12;;;;;;;24.52;62.57;101004.42;1645982;85;21037;-47
2021/06/15 09:32:28;;;;;;;8.03;2.90;;;;;;;24.52;61.54;100992.45;1644510;86;21550;-50
2021/06/15 09:35:01;;;;;;;4.83;2.33;;;;;;;24.56;60.60;100980.61;1652965;85;21065;-49
2021/06/15 09:37:31;;;;;;;6.30;3.33;;;;;;;24.50;60.40;100961.12;1639399;86;21154;-46
2021/06/15 09:39:59;;;;;;;8.10;3.70;;;;;;;24.41;60.63;100937.88;1645964;86;21072;-50
2021/06/15 09:42:27;;;;;;;7.10;2.92;;;;;;;24.28;61.06;100918.52;1641338;86;21029;-47
2021/06/15 09:44:54;;;;;;;4.17;2.65;;;;;;;24.16;61.34;100907.83;1653531;86;21565;-46
2021/06/15 09:47:23;;;;;;;3.67;3.10;;;;;;;24.07;61.48;100907.18;1655755;86;21115;-52
2021/06/15 09:49:50;;;;;;;4.33;3.92;;;;;;;24.02;61.79;100909.32;1653293;86;21028;-47
2021/06/15 09:52:26;;;;;;;6.28;3.85;;;;;;;24.03;62.05;100920.78;1651777;85;21058;-45
2021/06/15 09:54:55;;;;;;;3.77;3.42;;;;;;;24.05;62.32;100917.59;1650829;86;21511;-46
2021/06/15 09:57:29;;;;;;;4.65;3.90;;;;;;;24.07;62.49;100912.50;1654443;85;21047;-46
2021/06/15 10:00:13;;;;;;;5.20;4.22;;;;;;;24.07;62.76;100908.52;1699071;82;21019;-50
2021/06/15 10:02:57;;;;;;;8.50;4.17;;;;;;;24.10;62.98;100913.61;1665455;84;21061;-47
2021/06/15 10:05:33;;;;;;;8.25;4.42;;;;;;;24.14;62.88;100904.44;1697022;81;21050;-47
2021/06/15 10:08:03;;;;;;;4.40;3.98;;;;;;;24.18;62.97;100915.20;1690988;82;21553;-45
2021/06/15 10:10:39;;;;;;;4.30;3.90;;;;;;;24.22;62.84;100913.16;1717560;82;21250;-48
2021/06/15 10:13:07;;;;;;;6.67;4.12;;;;;;;24.25;62.85;100924.91;1680309;85;21173;-49
2021/06/15 10:15:35;;;;;;;8.45;7.42;;;;;;;24.31;62.86;100922.25;1731360;82;21051;-45
2021/06/15 10:18:02;;;;;;;13.20;8.98;;;;;;;24.38;62.87;100903.55;1683383;85;21011;-48
2021/06/15 10:20:32;;;;;;;7.22;5.22;;;;;;;24.45;63.14;100916.72;1693953;84;21051;-47
2021/06/15 10:23:00;;;;;;;8.00;4.55;;;;;;;24.51;63.22;100906.47;1730944;82;21038;-50
2021/06/15 10:25:29;;;;;;;5.10;2.85;;;;;;;24.58;63.26;100916.16;1682733;85;21079;-50
2021/06/15 10:27:56;;;;;;;5.58;2.85;;;;;;;24.63;62.24;100911.31;1731010;82;20988;-45
2021/06/15 10:30:33;;;;;;;7.33;3.67;;;;;;;24.67;61.26;100911.44;1662566;85;21015;-47
2021/06/15 10:33:04;;;;;;;11.68;4.97;;;;;;;24.68;60.82;100910.48;1677049;84;21062;-48
2021/06/15 10:35:39;;;;;;;7.47;3.90;;;;;;;24.69;60.91;100905.55;1680152;84;21101;-48
2021/06/15 10:38:06;;;;;;;8.53;4.00;;;;;;;24.71;61.08;100898.28;1683035;85;21510;-48
2021/06/15 10:40:34;;;;;;;7.55;4.17;;;;;;;24.73;61.30;100891.03;1678703;85;21046;-48
2021/06/15 10:43:20;;;;;;;11.48;8.48;;;;;;;24.76;61.37;100888.14;1680856;85;21041;-48
2021/06/15 10:46:02;;;;;;;22.87;17.60;;;;;;;24.79;61.33;100880.75;1683251;85;21516;-48
2021/06/15 10:48:34;;;;;;;11.48;4.40;;;;;;;24.84;61.46;100879.06;1683112;85;21145;-48
2021/06/15 10:51:02;;;;;;;6.00;3.10;;;;;;;24.88;61.02;100868.55;1609867;88;21098;-48
2021/06/15 10:53:40;;;;;;;8.83;3.22;;;;;;;24.91;60.54;100860.33;1610949;88;21054;-48
2021/06/15 10:56:11;;;;;;;6.45;3.20;;;;;;;24.93;60.21;100850.41;1616527;88;21076;-49
2021/06/15 11:01:19;;;;;;;9.55;4.70;;;;;;;24.97;60.52;100835.88;1573831;91;21107;-48
2021/06/15 11:03:55;;;;;;;4.28;3.85;;;;;;;24.97;60.81;100833.22;1573162;91;21061;-49
2021/06/15 11:06:33;;;;;;;6.72;3.92;;;;;;;24.99;60.88;100823.29;1569127;91;21080;-48
2021/06/15 11:11:38;;;;;;;9.13;4.58;;;;;;;25.01;61.08;100812.89;1544076;91;21062;-48
2021/06/15 11:14:18;;;;;;;5.47;4.30;;;;;;;25.03;61.19;100818.08;1545617;92;21126;-48
2021/06/15 11:16:49;;;;;;;6.40;3.83;;;;;;;25.03;61.29;100822.92;1550949;92;21170;-48
2021/06/15 11:19:24;;;;;;;23.15;7.22;;;;;;;25.05;61.37;100833.44;1541753;92;21117;-49
2021/06/15 11:22:01;;;;;;;14.13;6.42;;;;;;;25.06;61.41;100780.54;1534344;92;21165;-48
2021/06/15 11:24:47;;;;;;;7.75;4.83;;;;;;;25.04;61.92;100750.53;1542018;92;21109;-46
2021/06/15 11:27:19;;;;;;;12.00;6.92;;;;;;;25.01;62.44;100746.80;1556550;91;21589;-48
2021/06/15 11:29:48;;;;;;;9.20;5.58;;;;;;;24.97;62.73;100748.03;1520432;93;21101;-48
2021/06/15 11:32:27;;;;;;;8.15;5.75;;;;;;;24.93;63.13;100746.59;1515098;93;21100;-49
2021/06/15 11:34:59;;;;;;;10.75;7.15;;;;;;;24.92;63.37;100766.17;1504944;95;21017;-48
2021/06/15 11:37:44;;;;;;;16.20;8.98;;;;;;;24.92;63.54;100808.77;1515126;93;21565;-49
2021/06/15 11:40:27;;;;;;;12.75;7.47;;;;;;;24.91;63.71;100787.13;1514267;94;21092;-50
2021/06/15 11:43:09;;;;;;;7.12;5.08;;;;;;;24.87;64.09;100753.73;1518102;94;21190;-53
2021/06/15 11:45:38;;;;;;;9.13;5.60;;;;;;;24.82;63.79;100742.13;1519022;93;21166;-49
2021/06/15 11:48:33;;;;;;;8.25;5.03;;;;;;;24.79;63.69;100734.38;1501127;94;21690;-48
2021/06/15 11:51:08;;;;;;;7.35;5.17;;;;;;;24.77;63.48;100715.54;1466503;96;21095;-51